Time;durP1;ratioP1;P1;durP2;ratioP2;P2;SDS_P1;SDS_P2;PMS_P1;PMS_P2;Temp;Humidity;BMP_temperature;BMP_pressure;BME280_temperature;BME280_humidity;BME280_pressure;Samples;Min_cycle;Max_cycle;Signal;HPM_P1;HPM_P2
2023/11/27 00:01:57;;;;;;;14.63;7.50;;;-0.30;99.90;;;;;;4940851;29;20232;-87
2023/11/27 00:04:25;;;;;;;14.20;7.70;;;-0.30;99.90;;;;;;4957595;28;20649;-88
2023/11/27 00:06:53;;;;;;;14.07;7.87;;;-0.20;99.90;;;;;;4941456;29;20209;-89
2023/11/27 00:09:21;;;;;;;14.87;7.97;;;-0.30;99.90;;;;;;4957623;29;20209;-86
2023/11/27 00:11:49;;;;;;;15.97;8.33;;;-0.40;99.90;;;;;;4957238;29;20217;-86
2023/11/27 00:14:16;;;;;;;15.07;7.90;;;-0.40;99.90;;;;;;4956881;29;20196;-85
2023/11/27 00:16:44;;;;;;;13.10;8.03;;;-0.30;99.90;;;;;;4956496;29;20223;-90
2023/11/27 00:19:11;;;;;;;14.73;8.03;;;-0.30;99.90;;;;;;4957568;29;20287;-88
2023/11/27 00:21:39;;;;;;;13.07;7.70;;;-0.30;99.90;;;;;;4957795;29;20210;-87
2023/11/27 00:24:07;;;;;;;14.17;8.00;;;-0.30;99.90;;;;;;4957173;29;20390;-87
2023/11/27 00:26:34;;;;;;;13.73;7.50;;;-0.30;99.90;;;;;;4939745;29;20625;-88
2023/11/27 00:29:02;;;;;;;14.13;7.47;;;-0.20;99.90;;;;;;4957101;29;20219;-86
2023/11/27 00:31:29;;;;;;;13.83;7.53;;;-0.30;99.90;;;;;;4939786;29;20202;-85
2023/11/27 00:33:56;;;;;;;14.30;8.13;;;-0.30;99.90;;;;;;4939864;29;20191;-88
2023/11/27 00:36:25;;;;;;;12.63;7.87;;;-0.30;99.90;;;;;;4957144;29;20248;-88
2023/11/27 00:38:52;;;;;;;15.47;8.70;;;-0.20;99.90;;;;;;4957328;29;20218;-88
2023/11/27 00:41:19;;;;;;;13.97;8.37;;;-0.30;99.90;;;;;;4955479;29;20319;-89
2023/11/27 00:43:47;;;;;;;15.07;7.93;;;-0.20;99.90;;;;;;4939417;29;20205;-88
2023/11/27 00:46:14;;;;;;;15.13;8.87;;;-0.30;99.90;;;;;;4957300;29;20247;-88
2023/11/27 00:48:42;;;;;;;14.73;8.40;;;-0.30;99.90;;;;;;4955360;29;20212;-89
2023/11/27 00:51:10;;;;;;;14.97;8.43;;;-0.20;99.90;;;;;;4939634;29;20199;-89
2023/11/27 00:53:38;;;;;;;16.37;8.63;;;-0.30;99.90;;;;;;4955290;29;20195;-89
2023/11/27 00:56:06;;;;;;;14.30;8.20;;;-0.20;99.90;;;;;;4956766;29;20242;-89
2023/11/27 00:58:34;;;;;;;15.40;8.57;;;-0.20;99.90;;;;;;4957102;29;20332;-89
2023/11/27 01:01:02;;;;;;;16.87;8.63;;;-0.20;99.90;;;;;;4955958;29;20197;-90
2023/11/27 01:03:29;;;;;;;15.57;8.30;;;-0.20;99.90;;;;;;4956905;29;20207;-88
2023/11/27 01:05:57;;;;;;;13.57;8.23;;;-0.20;99.90;;;;;;4939301;29;20189;-89
2023/11/27 01:08:24;;;;;;;15.53;7.73;;;-0.20;99.90;;;;;;4956022;29;20199;-89
2023/11/27 01:10:52;;;;;;;21.73;8.90;;;-0.10;99.90;;;;;;4956489;29;20277;-88
2023/11/27 01:13:20;;;;;;;16.33;8.77;;;-0.10;99.90;;;;;;4938733;29;20673;-88
2023/11/27 01:15:48;;;;;;;13.70;8.37;;;-0.10;99.90;;;;;;4938547;28;20655;-88
2023/11/27 01:18:15;;;;;;;14.00;8.17;;;-0.20;99.90;;;;;;4955966;29;20224;-87
2023/11/27 01:20:42;;;;;;;14.07;8.40;;;-0.30;99.90;;;;;;4938983;29;20249;-87
2023/11/27 01:23:09;;;;;;;13.87;8.13;;;-0.20;99.90;;;;;;4955732;29;20280;-88
2023/11/27 01:25:36;;;;;;;15.60;8.23;;;-0.20;99.90;;;;;;4956113;29;20261;-89
2023/11/27 01:28:04;;;;;;;18.53;8.37;;;-0.30;99.90;;;;;;4954547;29;20275;-88
2023/11/27 01:30:32;;;;;;;15.53;8.37;;;-0.20;99.90;;;;;;4938948;29;20198;-88
2023/11/27 01:32:59;;;;;;;15.53;8.37;;;-0.30;99.90;;;;;;4955731;29;20197;-88
2023/11/27 01:35:27;;;;;;;16.70;8.43;;;-0.20;99.90;;;;;;4953999;29;20209;-84
2023/11/27 01:37:54;;;;;;;15.13;8.27;;;-0.40;99.90;;;;;;4938204;29;20311;-88
2023/11/27 01:40:22;;;;;;;15.00;8.57;;;-0.30;99.90;;;;;;4955576;29;20218;-87
2023/11/27 01:42:49;;;;;;;14.20;7.90;;;-0.30;99.90;;;;;;4938036;29;20652;-87
2023/11/27 01:45:16;;;;;;;14.07;8.50;;;-0.20;99.90;;;;;;4938593;29;20205;-88
2023/11/27 01:47:44;;;;;;;15.57;9.10;;;-0.40;99.90;;;;;;4954179;29;20233;-89
2023/11/27 01:50:12;;;;;;;15.40;8.33;;;-0.40;99.90;;;;;;4938631;29;20688;-87
2023/11/27 01:52:40;;;;;;;13.17;7.57;;;-0.40;99.90;;;;;;4937855;29;20258;-87
2023/11/27 01:55:11;;;;;;;15.80;8.97;;;-0.50;99.90;;;;;;4934753;29;20359;-86
2023/11/27 01:57:39;;;;;;;14.83;8.67;;;-0.50;99.90;;;;;;4934366;29;20643;-87
2023/11/27 02:00:07;;;;;;;17.67;9.13;;;-0.60;99.90;;;;;;4934615;29;20205;-87
2023/11/27 02:02:35;;;;;;;16.63;8.63;;;-0.50;99.90;;;;;;4935998;29;20206;-87
2023/11/27 02:05:04;;;;;;;17.37;8.30;;;-0.70;99.90;;;;;;4936209;29;20192;-88
2023/11/27 02:07:31;;;;;;;16.73;8.80;;;-0.60;99.90;;;;;;4934864;29;20215;-86
2023/11/27 02:09:59;;;;;;;16.47;8.33;;;-0.50;99.90;;;;;;4936086;29;20196;-87
2023/11/27 02:12:26;;;;;;;16.13;8.73;;;-0.50;99.90;;;;;;4935253;29;20211;-87
2023/11/27 02:14:54;;;;;;;16.57;8.50;;;-0.50;99.90;;;;;;4935792;29;20200;-88
2023/11/27 02:17:21;;;;;;;16.47;8.90;;;-0.50;99.90;;;;;;4934395;29;20223;-88
2023/11/27 02:19:48;;;;;;;16.70;8.47;;;-0.40;99.90;;;;;;4935169;29;20201;-87
2023/11/27 02:22:16;;;;;;;15.40;8.63;;;-0.50;99.90;;;;;;4934450;29;20202;-87
2023/11/27 02:24:43;;;;;;;16.33;9.43;;;-0.50;99.90;;;;;;4918738;29;20207;-87
2023/11/27 02:27:11;;;;;;;14.63;8.40;;;-0.50;99.90;;;;;;4935517;29;20731;-87
2023/11/27 02:29:38;;;;;;;17.20;9.07;;;-0.60;99.90;;;;;;4934247;29;20228;-87
2023/11/27 02:32:06;;;;;;;15.43;8.97;;;-0.60;99.90;;;;;;4935005;29;20218;-86
2023/11/27 02:34:34;;;;;;;20.80;9.73;;;-0.60;99.90;;;;;;4936200;29;20202;-87
2023/11/27 02:37:01;;;;;;;17.87;8.97;;;-0.50;99.90;;;;;;4935845;29;20210;-87
2023/11/27 02:39:28;;;;;;;17.80;9.50;;;-0.40;99.90;;;;;;4935948;29;20209;-88
2023/11/27 02:41:56;;;;;;;16.73;8.97;;;-0.50;99.90;;;;;;4918649;29;20305;-87
2023/11/27 02:44:23;;;;;;;16.80;9.00;;;-0.40;99.90;;;;;;4935941;29;20202;-86
2023/11/27 02:46:51;;;;;;;19.43;9.40;;;-0.40;99.90;;;;;;4934921;29;20269;-87
2023/11/27 02:49:18;;;;;;;15.77;9.53;;;-0.40;99.90;;;;;;4935292;29;20615;-87
2023/11/27 02:51:46;;;;;;;16.87;9.93;;;-0.40;99.90;;;;;;4933746;29;20668;-87
2023/11/27 02:54:14;;;;;;;18.00;9.53;;;-0.40;99.90;;;;;;4937391;29;20205;-88
2023/11/27 02:56:42;;;;;;;17.40;9.43;;;-0.50;99.90;;;;;;4937857;29;20223;-88
2023/11/27 02:59:09;;;;;;;17.83;9.43;;;-0.60;99.90;;;;;;4937549;29;20263;-88
2023/11/27 03:01:37;;;;;;;17.13;9.77;;;-0.60;99.90;;;;;;4937816;29;20202;-88
2023/11/27 03:04:04;;;;;;;15.57;9.53;;;-0.60;99.90;;;;;;4954729;29;20613;-88
2023/11/27 03:06:32;;;;;;;18.97;10.33;;;-0.60;99.90;;;;;;4937534;29;20196;-87
2023/11/27 03:09:00;;;;;;;19.43;10.20;;;-0.50;99.90;;;;;;4937851;29;20234;-88
2023/11/27 03:11:27;;;;;;;18.40;10.03;;;-0.40;99.90;;;;;;4937973;29;20571;-88
2023/11/27 03:13:55;;;;;;;20.80;11.00;;;-0.60;99.90;;;;;;4953796;28;20197;-87
2023/11/27 03:16:22;;;;;;;19.63;10.23;;;-0.50;99.90;;;;;;4955187;29;20186;-87
2023/11/27 03:18:49;;;;;;;19.83;10.00;;;-0.70;99.90;;;;;;4953682;29;20741;-88
2023/11/27 03:21:21;;;;;;;20.63;9.93;;;-0.60;99.90;;;;;;4953908;29;20664;-88
2023/11/27 03:23:48;;;;;;;19.83;10.50;;;-0.60;99.90;;;;;;4952857;29;20566;-88
2023/11/27 03:26:16;;;;;;;19.53;10.53;;;-0.60;99.90;;;;;;4955208;29;20713;-89
2023/11/27 03:28:44;;;;;;;20.33;10.47;;;-0.60;99.90;;;;;;4954768;29;20659;-88
2023/11/27 03:31:11;;;;;;;21.27;10.97;;;-0.70;99.90;;;;;;4954886;29;20242;-87
2023/11/27 03:33:38;;;;;;;18.80;10.50;;;-0.80;99.90;;;;;;4937025;29;20291;-86
2023/11/27 03:36:06;;;;;;;18.30;11.23;;;-0.80;99.90;;;;;;4937536;29;20208;-87
2023/11/27 03:38:33;;;;;;;23.23;11.07;;;-0.80;99.90;;;;;;4938028;29;20765;-90
2023/11/27 03:41:03;;;;;;;21.07;11.90;;;-0.80;99.90;;;;;;4940605;29;20270;-90
2023/11/27 03:43:32;;;;;;;23.63;11.77;;;-0.80;99.90;;;;;;4958126;29;20298;-89
2023/11/27 03:46:00;;;;;;;20.67;10.90;;;-0.60;99.90;;;;;;4958187;29;20229;-88
2023/11/27 03:48:27;;;;;;;23.53;11.40;;;-0.70;99.90;;;;;;4958050;29;20205;-88
2023/11/27 03:50:54;;;;;;;22.80;12.07;;;-0.80;99.90;;;;;;4958265;29;20370;-88
2023/11/27 03:53:22;;;;;;;21.93;12.10;;;-0.90;99.90;;;;;;4925386;29;20223;-90
2023/11/27 03:55:50;;;;;;;22.30;11.77;;;-0.80;99.90;;;;;;4937649;29;20347;-88
2023/11/27 03:58:17;;;;;;;21.70;11.97;;;-0.80;99.90;;;;;;4937641;29;20217;-85
2023/11/27 04:00:46;;;;;;;22.40;12.10;;;-0.80;99.90;;;;;;4937894;29;20670;-88
2023/11/27 04:03:14;;;;;;;21.90;11.70;;;-0.80;99.90;;;;;;4937512;29;20550;-88
2023/11/27 04:05:41;;;;;;;24.70;12.57;;;-0.90;99.90;;;;;;4921581;29;20902;-88
2023/11/27 04:08:09;;;;;;;21.70;11.63;;;-0.90;99.90;;;;;;4937209;29;20292;-89
2023/11/27 04:10:37;;;;;;;22.03;12.07;;;-0.80;99.90;;;;;;4921358;29;20309;-89
2023/11/27 04:13:05;;;;;;;24.33;12.17;;;-0.80;99.90;;;;;;4937260;29;20293;-88
2023/11/27 04:15:34;;;;;;;21.60;11.73;;;-0.90;99.90;;;;;;4937499;29;20292;-87
2023/11/27 04:18:01;;;;;;;24.70;12.87;;;-0.90;99.90;;;;;;4937046;29;20219;-87
2023/11/27 04:20:28;;;;;;;18.90;10.80;;;-0.80;99.90;;;;;;4936760;29;20224;-88
2023/11/27 04:22:56;;;;;;;26.03;12.23;;;-0.90;99.90;;;;;;4938387;29;20192;-87
2023/11/27 04:25:23;;;;;;;22.03;11.50;;;-0.80;99.90;;;;;;4952853;29;20235;-87
2023/11/27 04:27:51;;;;;;;25.57;12.23;;;-0.70;99.90;;;;;;4938127;29;20196;-88
2023/11/27 04:30:19;;;;;;;21.13;11.77;;;-0.90;99.90;;;;;;4937027;29;20204;-88
2023/11/27 04:32:46;;;;;;;23.10;12.47;;;-0.90;99.90;;;;;;4936991;29;20252;-84
2023/11/27 04:35:13;;;;;;;22.50;12.13;;;-0.90;99.90;;;;;;4935713;29;20205;-87
2023/11/27 04:37:41;;;;;;;24.73;12.03;;;-1.00;99.90;;;;;;4936275;29;20232;-88
2023/11/27 04:40:10;;;;;;;26.50;13.43;;;-1.00;99.90;;;;;;4938142;29;20198;-88
2023/11/27 04:42:38;;;;;;;23.27;12.20;;;-0.90;99.90;;;;;;4936060;29;20654;-85
2023/11/27 04:45:09;;;;;;;26.43;13.33;;;-0.90;99.90;;;;;;4937550;29;20251;-87
2023/11/27 04:47:36;;;;;;;25.40;12.37;;;-0.80;99.90;;;;;;4936173;29;20206;-87
2023/11/27 04:50:03;;;;;;;26.03;12.70;;;-0.70;99.90;;;;;;4936850;29;20645;-87
2023/11/27 04:52:31;;;;;;;23.97;11.90;;;-0.80;99.90;;;;;;4935584;28;20299;-88
2023/11/27 04:54:58;;;;;;;25.40;12.73;;;-0.90;99.90;;;;;;4936247;29;20593;-87
2023/11/27 04:57:25;;;;;;;22.43;12.27;;;-0.80;99.90;;;;;;4936199;29;20254;-88
2023/11/27 04:59:53;;;;;;;22.67;12.80;;;-0.80;99.90;;;;;;4951980;28;20197;-87
2023/11/27 05:02:20;;;;;;;26.97;13.40;;;-0.80;99.90;;;;;;4937290;29;20260;-87
2023/11/27 05:04:47;;;;;;;24.17;13.00;;;-0.90;99.90;;;;;;4937069;29;20207;-87
2023/11/27 05:07:14;;;;;;;23.17;12.70;;;-1.00;99.90;;;;;;4937037;29;20196;-87
2023/11/27 05:09:41;;;;;;;24.77;13.00;;;-1.00;99.90;;;;;;4951130;29;20296;-87
2023/11/27 05:12:09;;;;;;;24.57;12.73;;;-1.10;99.90;;;;;;4920021;29;20225;-87
2023/11/27 05:14:50;;;;;;;24.97;13.00;;;-1.00;99.90;;;;;;4935921;29;20275;-87
2023/11/27 05:17:17;;;;;;;27.07;13.13;;;-1.10;99.90;;;;;;4936170;29;20191;-87
2023/11/27 05:19:45;;;;;;;27.80;13.17;;;-1.10;99.90;;;;;;4951881;29;20563;-87
2023/11/27 05:22:14;;;;;;;24.33;13.53;;;-1.00;99.90;;;;;;4936823;29;20192;-87
2023/11/27 05:24:41;;;;;;;32.27;13.13;;;-1.00;99.90;;;;;;4936994;29;20686;-87
2023/11/27 05:27:09;;;;;;;25.97;13.13;;;-1.00;99.90;;;;;;4936970;29;20664;-87
2023/11/27 05:29:36;;;;;;;25.30;13.37;;;-1.00;99.90;;;;;;4935748;29;20651;-87
2023/11/27 05:32:08;;;;;;;27.93;13.40;;;-1.00;99.90;;;;;;4936614;29;20208;-86
2023/11/27 05:34:38;;;;;;;26.20;12.90;;;-1.10;99.90;;;;;;4919750;29;20200;-87
2023/11/27 05:37:08;;;;;;;27.77;13.40;;;-1.00;99.90;;;;;;4919827;29;20200;-88
2023/11/27 05:39:37;;;;;;;24.70;12.63;;;-0.90;99.90;;;;;;4935748;29;20215;-88
2023/11/27 05:42:05;;;;;;;28.50;13.50;;;-0.80;99.90;;;;;;4919983;29;20268;-87
2023/11/27 05:44:32;;;;;;;26.07;13.33;;;-0.80;99.90;;;;;;4934788;29;20269;-90
2023/11/27 05:46:59;;;;;;;22.50;12.43;;;-0.90;99.90;;;;;;4936204;29;20561;-88
2023/11/27 05:49:30;;;;;;;28.00;13.77;;;-0.90;99.90;;;;;;4934683;29;20650;-85
2023/11/27 05:51:58;;;;;;;26.60;13.43;;;-0.90;99.90;;;;;;4950303;29;20197;-88
2023/11/27 05:54:26;;;;;;;27.10;13.97;;;-0.90;99.90;;;;;;4934455;29;20233;-87
2023/11/27 05:56:54;;;;;;;26.03;13.50;;;-0.80;99.90;;;;;;4935113;29;20225;-88
2023/11/27 05:59:21;;;;;;;24.27;13.33;;;-0.80;99.90;;;;;;4936298;29;20233;-88
2023/11/27 06:01:49;;;;;;;24.17;13.20;;;-0.90;99.90;;;;;;4919403;29;20203;-88
2023/11/27 06:04:16;;;;;;;28.77;13.17;;;-0.80;99.90;;;;;;4934707;29;20196;-89
2023/11/27 06:06:43;;;;;;;27.13;12.67;;;-0.80;99.90;;;;;;4934880;29;20283;-89
2023/11/27 06:09:11;;;;;;;25.80;13.23;;;-0.80;99.90;;;;;;4936331;29;20199;-89
2023/11/27 06:11:38;;;;;;;26.83;13.33;;;-0.80;99.90;;;;;;4919230;29;20225;-89
2023/11/27 06:14:05;;;;;;;26.17;13.10;;;-0.90;99.90;;;;;;4935755;29;20288;-90
2023/11/27 06:16:33;;;;;;;27.67;13.30;;;-0.90;99.90;;;;;;4935085;29;20199;-91
2023/11/27 06:19:00;;;;;;;26.07;13.47;;;-0.90;99.90;;;;;;4935124;29;20223;-91
2023/11/27 06:21:30;;;;;;;27.03;13.97;;;-0.80;99.90;;;;;;4935294;29;20228;-88
2023/11/27 06:23:58;;;;;;;26.07;12.60;;;-0.80;99.90;;;;;;4935860;29;20533;-87
2023/11/27 06:26:25;;;;;;;25.10;12.80;;;-0.70;99.90;;;;;;4935935;29;20220;-84
2023/11/27 06:28:52;;;;;;;26.27;13.67;;;-0.80;99.90;;;;;;4934884;29;20198;-86
2023/11/27 06:31:19;;;;;;;25.57;12.73;;;-0.70;99.90;;;;;;4935217;29;20270;-86
2023/11/27 06:33:46;;;;;;;27.27;13.87;;;-0.60;99.90;;;;;;4935679;29;20200;-87
2023/11/27 06:36:15;;;;;;;26.27;13.03;;;-0.60;99.90;;;;;;4934214;29;20197;-86
2023/11/27 06:38:42;;;;;;;24.40;13.10;;;-0.70;99.90;;;;;;4933773;29;20224;-87
2023/11/27 06:41:10;;;;;;;26.73;13.53;;;-0.70;99.90;;;;;;4935981;29;20774;-90
2023/11/27 06:43:39;;;;;;;27.80;13.27;;;-0.70;99.90;;;;;;4936309;29;20652;-90
2023/11/27 06:46:11;;;;;;;24.33;13.07;;;-0.70;99.90;;;;;;4919592;29;20203;-91
2023/11/27 06:48:39;;;;;;;29.20;13.60;;;-0.70;99.90;;;;;;4935711;29;20196;-92
2023/11/27 06:51:10;;;;;;;29.73;13.63;;;-0.80;99.90;;;;;;4945018;29;20179;-92
2023/11/27 06:53:41;;;;;;;24.33;12.73;;;-0.80;99.90;;;;;;4942269;29;20201;-91
2023/11/27 06:56:09;;;;;;;24.10;12.33;;;-0.80;99.90;;;;;;4950457;28;20243;-87
2023/11/27 06:58:37;;;;;;;26.50;12.73;;;-0.60;99.90;;;;;;4935517;29;20225;-88
2023/11/27 07:01:09;;;;;;;24.33;13.50;;;-0.70;99.90;;;;;;4935476;29;20201;-88
2023/11/27 07:03:37;;;;;;;25.03;12.27;;;-0.60;99.90;;;;;;4935483;29;20667;-88
2023/11/27 07:06:05;;;;;;;24.87;12.17;;;-0.70;99.90;;;;;;4934160;29;20270;-90
2023/11/27 07:08:34;;;;;;;22.80;12.80;;;-0.60;99.90;;;;;;4934141;29;20209;-91
2023/11/27 07:11:02;;;;;;;21.50;11.80;;;-0.60;99.90;;;;;;4918968;29;20226;-89
2023/11/27 07:13:30;;;;;;;23.80;12.30;;;-0.80;99.90;;;;;;4934501;29;20278;-89
2023/11/27 07:15:58;;;;;;;26.17;12.60;;;-0.80;99.90;;;;;;4937496;29;20200;-89
2023/11/27 07:18:25;;;;;;;23.37;12.47;;;-0.80;99.90;;;;;;4938792;29;20229;-89
2023/11/27 07:20:58;;;;;;;26.03;11.80;;;-0.70;99.90;;;;;;4939275;29;20209;-89
2023/11/27 07:23:27;;;;;;;21.10;11.27;;;-0.70;99.90;;;;;;4940051;29;20278;-91
2023/11/27 07:25:56;;;;;;;23.73;12.93;;;-0.70;99.90;;;;;;4938280;29;20221;-91
2023/11/27 07:28:25;;;;;;;23.30;11.93;;;-0.50;99.90;;;;;;4939601;29;20194;-92
2023/11/27 07:30:54;;;;;;;22.47;11.30;;;-0.50;99.90;;;;;;4939728;28;20197;-92
2023/11/27 07:33:22;;;;;;;22.90;11.87;;;-0.40;99.90;;;;;;4938297;29;20198;-90
2023/11/27 07:35:50;;;;;;;20.37;10.73;;;-0.50;99.90;;;;;;4939704;29;20193;-92
2023/11/27 07:38:17;;;;;;;21.60;11.73;;;-0.60;99.90;;;;;;4937826;29;20578;-92
2023/11/27 07:40:44;;;;;;;22.20;11.57;;;-0.40;99.90;;;;;;4939452;29;20249;-92
2023/11/27 07:43:11;;;;;;;19.87;11.27;;;-0.40;99.90;;;;;;4938424;29;20205;-92
2023/11/27 07:45:39;;;;;;;23.77;11.40;;;-0.50;99.90;;;;;;4937941;29;20194;-91
2023/11/27 07:48:07;;;;;;;22.07;11.93;;;-0.40;99.90;;;;;;4953996;28;20210;-82
2023/11/27 07:50:35;;;;;;;22.70;10.93;;;-0.40;99.90;;;;;;4936827;29;20200;-81
2023/11/27 07:53:03;;;;;;;20.63;11.20;;;-0.30;99.90;;;;;;4937718;29;20725;-82
2023/11/27 07:55:32;;;;;;;21.63;11.07;;;-0.40;99.90;;;;;;4949696;29;20265;-83
2023/11/27 07:58:00;;;;;;;19.83;10.50;;;-0.40;99.90;;;;;;4939796;29;20204;-84
2023/11/27 08:00:27;;;;;;;19.20;10.37;;;-0.40;99.90;;;;;;4955637;29;20259;-82
2023/11/27 08:02:55;;;;;;;19.27;10.47;;;-0.50;99.90;;;;;;4939337;29;20206;-83
2023/11/27 08:05:24;;;;;;;20.17;11.10;;;-0.50;99.90;;;;;;4956872;29;20259;-83
2023/11/27 08:07:52;;;;;;;19.83;10.83;;;-0.50;99.90;;;;;;4939557;29;20267;-85
2023/11/27 08:10:21;;;;;;;20.57;11.03;;;-0.30;99.90;;;;;;4940068;29;20232;-84
2023/11/27 08:12:48;;;;;;;20.43;10.20;;;-0.30;99.90;;;;;;4955201;29;20641;-84
2023/11/27 08:15:18;;;;;;;20.10;10.63;;;-0.20;99.90;;;;;;4939714;29;20197;-85
2023/11/27 08:17:47;;;;;;;21.43;10.67;;;-0.20;99.90;;;;;;4939397;29;20201;-85
2023/11/27 08:20:17;;;;;;;19.23;10.50;;;-0.10;99.90;;;;;;4956067;29;20297;-83
2023/11/27 08:22:45;;;;;;;22.10;10.57;;;-0.30;99.90;;;;;;4956368;29;20199;-84
2023/11/27 08:25:16;;;;;;;18.87;10.43;;;-0.30;99.90;;;;;;4956262;28;20201;-84
2023/11/27 08:27:46;;;;;;;23.33;11.23;;;-0.30;99.90;;;;;;4939412;29;20208;-84
2023/11/27 08:30:14;;;;;;;21.23;10.70;;;-0.30;99.90;;;;;;4956761;29;20202;-84
2023/11/27 08:32:42;;;;;;;20.67;10.47;;;-0.40;99.90;;;;;;4939135;29;20210;-84
2023/11/27 08:35:11;;;;;;;16.23;9.60;;;-0.40;99.90;;;;;;4938822;29;20257;-84
2023/11/27 08:37:39;;;;;;;17.07;9.70;;;-0.30;99.90;;;;;;4955973;29;20283;-84
2023/11/27 08:40:12;;;;;;;20.10;10.10;;;-0.30;99.90;;;;;;4956186;29;20575;-84
2023/11/27 08:42:41;;;;;;;21.00;10.60;;;-0.30;99.90;;;;;;4938841;29;20202;-82
2023/11/27 08:45:18;;;;;;;17.87;9.37;;;-0.30;99.90;;;;;;4956125;29;20228;-82
2023/11/27 08:47:56;;;;;;;18.70;10.00;;;-0.30;99.90;;;;;;4938758;28;20262;-84
2023/11/27 08:50:27;;;;;;;18.30;9.57;;;-0.20;99.90;;;;;;4955962;29;20252;-83
2023/11/27 08:52:58;;;;;;;22.40;10.60;;;-0.20;99.90;;;;;;4938919;29;20199;-84
2023/11/27 08:55:31;;;;;;;23.33;11.10;;;-0.20;99.90;;;;;;4955360;29;20237;-84
2023/11/27 08:58:02;;;;;;;23.07;11.20;;;-0.20;99.90;;;;;;4938723;29;20191;-84
2023/11/27 09:00:30;;;;;;;22.10;10.83;;;-0.10;99.90;;;;;;4955465;28;20264;-83
2023/11/27 09:02:59;;;;;;;20.00;10.50;;;-0.10;99.90;;;;;;4938676;29;20567;-83
2023/11/27 09:05:31;;;;;;;17.70;9.77;;;0.00;99.90;;;;;;4955451;29;20199;-83
2023/11/27 09:08:04;;;;;;;19.30;10.40;;;-0.20;99.90;;;;;;4955309;29;20252;-83
2023/11/27 09:10:33;;;;;;;21.57;10.47;;;0.00;99.90;;;;;;4938383;29;20212;-83
2023/11/27 09:13:00;;;;;;;21.27;10.90;;;-0.20;99.90;;;;;;4955040;29;20186;-83
2023/11/27 09:15:28;;;;;;;21.07;11.10;;;-0.10;99.90;;;;;;4955208;29;20212;-82
2023/11/27 09:17:55;;;;;;;21.60;11.20;;;-0.10;99.90;;;;;;4938104;29;20678;-81
2023/11/27 09:20:23;;;;;;;21.97;11.30;;;-0.20;99.90;;;;;;4955298;29;20233;-83
2023/11/27 09:22:52;;;;;;;25.70;11.63;;;-0.10;99.90;;;;;;4922291;29;20604;-83
2023/11/27 09:25:19;;;;;;;24.60;11.77;;;0.00;99.90;;;;;;4955078;29;20595;-84
2023/11/27 09:27:47;;;;;;;25.07;12.27;;;-0.10;99.90;;;;;;4938236;29;20661;-85
2023/11/27 09:30:14;;;;;;;21.23;11.23;;;0.10;99.90;;;;;;4955681;29;20196;-85
2023/11/27 09:32:42;;;;;;;22.57;11.60;;;0.20;99.90;;;;;;4955302;29;20281;-85
2023/11/27 09:35:15;;;;;;;18.67;9.97;;;0.20;99.90;;;;;;4938073;29;20662;-86
2023/11/27 09:37:43;;;;;;;23.17;10.57;;;0.10;99.90;;;;;;4955390;28;20687;-83
2023/11/27 09:40:12;;;;;;;18.40;10.27;;;0.10;99.90;;;;;;4937755;29;20211;-86
2023/11/27 09:42:41;;;;;;;17.30;9.80;;;0.10;99.90;;;;;;4938033;29;20205;-85
2023/11/27 09:45:18;;;;;;;19.33;10.30;;;0.20;99.90;;;;;;4954933;29;20212;-87
2023/11/27 09:47:48;;;;;;;20.07;10.70;;;0.20;99.90;;;;;;4955277;29;20192;-87
2023/11/27 09:50:20;;;;;;;19.93;10.67;;;0.20;99.90;;;;;;4954746;29;20670;-85
2023/11/27 09:53:09;;;;;;;17.63;10.00;;;0.30;99.90;;;;;;4938083;29;20667;-87
2023/11/27 09:55:40;;;;;;;17.90;9.83;;;0.30;99.90;;;;;;4937258;29;20725;-84
2023/11/27 09:58:13;;;;;;;19.60;10.93;;;0.40;99.90;;;;;;4953044;29;20210;-82
2023/11/27 10:00:43;;;;;;;17.33;9.67;;;0.40;99.90;;;;;;4937357;29;20224;-83
2023/11/27 10:03:11;;;;;;;19.13;10.10;;;0.60;99.90;;;;;;4937268;29;20612;-85
2023/11/27 10:05:40;;;;;;;17.20;9.90;;;0.60;99.90;;;;;;4954722;29;20209;-87
2023/11/27 10:08:08;;;;;;;19.27;10.07;;;0.40;99.90;;;;;;4937776;29;20255;-85
2023/11/27 10:10:36;;;;;;;17.70;9.17;;;0.20;99.90;;;;;;4937396;29;20219;-84
2023/11/27 10:13:03;;;;;;;16.83;9.63;;;0.30;99.90;;;;;;4953220;29;20200;-87
2023/11/27 10:15:47;;;;;;;15.83;9.57;;;0.30;99.90;;;;;;4938964;29;20201;-83
2023/11/27 10:18:19;;;;;;;17.80;10.07;;;0.30;99.90;;;;;;4937664;29;20590;-84
2023/11/27 10:20:50;;;;;;;17.17;9.93;;;0.10;99.90;;;;;;4937229;29;20246;-85
2023/11/27 10:23:18;;;;;;;17.40;9.97;;;0.10;99.90;;;;;;4954881;29;20197;-88
2023/11/27 10:25:45;;;;;;;19.67;10.03;;;0.20;99.90;;;;;;4937859;29;20226;-85
2023/11/27 10:28:12;;;;;;;16.20;10.03;;;0.00;99.90;;;;;;4955195;29;20251;-88
2023/11/27 10:30:47;;;;;;;17.20;9.80;;;0.00;99.90;;;;;;4924316;29;20210;-86
2023/11/27 10:33:15;;;;;;;19.53;10.03;;;-0.10;99.90;;;;;;4937319;29;20294;-88
2023/11/27 10:35:42;;;;;;;18.57;9.50;;;-0.10;99.90;;;;;;4937671;29;20321;-87
2023/11/27 10:38:16;;;;;;;18.03;9.83;;;0.00;99.90;;;;;;4941880;29;20793;-87
2023/11/27 10:40:45;;;;;;;20.00;10.20;;;0.10;99.90;;;;;;4937442;29;20314;-90
2023/11/27 10:43:14;;;;;;;22.83;10.47;;;0.20;99.90;;;;;;4937605;29;20199;-87
2023/11/27 10:45:44;;;;;;;19.17;10.50;;;0.20;99.90;;;;;;4954381;29;20194;-85
2023/11/27 10:48:14;;;;;;;18.20;10.10;;;0.10;99.90;;;;;;4937458;29;20214;-89
2023/11/27 10:50:48;;;;;;;18.43;10.50;;;0.10;99.90;;;;;;4940237;29;20239;-86
2023/11/27 10:53:21;;;;;;;18.73;10.83;;;0.20;99.90;;;;;;4958276;29;20198;-86
2023/11/27 10:55:52;;;;;;;19.03;10.73;;;0.10;99.90;;;;;;4940860;29;20242;-86
2023/11/27 10:58:23;;;;;;;19.23;10.63;;;0.10;99.90;;;;;;4958200;29;20301;-86
2023/11/27 11:00:56;;;;;;;23.13;10.57;;;0.00;99.90;;;;;;4941102;29;20267;-84
2023/11/27 11:03:26;;;;;;;21.40;11.30;;;-0.10;99.90;;;;;;4957751;29;20183;-84
2023/11/27 11:05:59;;;;;;;21.90;11.37;;;-0.10;99.90;;;;;;4940606;29;20220;-86
2023/11/27 11:08:27;;;;;;;21.00;11.00;;;-0.10;99.90;;;;;;4941114;29;20275;-86
2023/11/27 11:10:57;;;;;;;20.77;11.27;;;0.00;99.90;;;;;;4941176;29;20217;-88
2023/11/27 11:13:26;;;;;;;22.83;11.27;;;-0.20;99.90;;;;;;4940869;29;20201;-88
2023/11/27 11:16:15;;;;;;;18.90;11.10;;;-0.10;99.90;;;;;;4940965;29;20201;-87
2023/11/27 11:19:42;;;;;;;20.83;11.60;;;0.00;99.90;;;;;;4957598;29;20222;-88
2023/11/27 11:22:19;;;;;;;27.30;11.23;;;0.00;99.90;;;;;;4857907;29;20206;-86
2023/11/27 11:25:15;;;;;;;19.97;10.83;;;0.10;99.90;;;;;;4864314;29;20235;-87
2023/11/27 11:27:57;;;;;;;23.20;11.17;;;0.00;99.90;;;;;;4879527;29;20216;-87
2023/11/27 11:30:25;;;;;;;19.10;11.33;;;0.00;99.90;;;;;;4879506;29;20296;-87
2023/11/27 11:32:52;;;;;;;22.07;11.50;;;-0.10;99.90;;;;;;4863800;29;20708;-85
2023/11/27 11:35:20;;;;;;;19.60;11.47;;;0.00;99.90;;;;;;4864030;29;20300;-86
2023/11/27 11:37:49;;;;;;;22.77;11.60;;;-0.20;99.90;;;;;;4863993;29;20216;-86
2023/11/27 11:40:18;;;;;;;21.23;11.80;;;-0.30;99.90;;;;;;4879154;29;20231;-86
2023/11/27 11:42:47;;;;;;;22.23;12.13;;;-0.20;99.90;;;;;;4863820;29;20294;-87
2023/11/27 11:45:17;;;;;;;20.70;12.13;;;-0.20;99.90;;;;;;4879407;29;20198;-87
2023/11/27 11:47:56;;;;;;;21.67;11.97;;;-0.10;99.90;;;;;;4864033;29;20213;-86
2023/11/27 11:50:30;;;;;;;24.77;12.67;;;-0.10;99.90;;;;;;4863880;29;20729;-87
2023/11/27 11:53:19;;;;;;;22.60;11.80;;;-0.10;99.90;;;;;;4928864;29;20205;-87
2023/11/27 11:55:54;;;;;;;22.60;13.00;;;-0.20;99.90;;;;;;4940241;29;20278;-86
2023/11/27 11:58:27;;;;;;;24.13;13.10;;;-0.20;99.90;;;;;;4956027;29;20196;-87
2023/11/27 12:01:02;;;;;;;23.93;13.47;;;-0.20;99.90;;;;;;4923246;29;20330;-87
2023/11/27 12:03:31;;;;;;;25.17;13.30;;;-0.10;99.90;;;;;;4957278;29;20191;-89
2023/11/27 12:06:03;;;;;;;24.27;13.07;;;-0.10;99.90;;;;;;4940430;29;20230;-88
2023/11/27 12:08:31;;;;;;;24.80;13.83;;;-0.10;99.90;;;;;;4925054;29;20203;-88
2023/11/27 12:11:00;;;;;;;28.77;14.70;;;0.00;99.90;;;;;;4940460;29;20221;-88
2023/11/27 12:13:35;;;;;;;27.37;14.10;;;-0.10;99.90;;;;;;4940487;29;20357;-87
2023/11/27 12:16:11;;;;;;;28.67;15.80;;;0.00;99.90;;;;;;4957347;29;20512;-87
2023/11/27 12:18:50;;;;;;;28.27;15.57;;;-0.10;99.90;;;;;;4940530;29;20223;-88
2023/11/27 12:21:22;;;;;;;29.13;15.47;;;-0.20;99.90;;;;;;4957008;29;20266;-87
2023/11/27 12:23:53;;;;;;;30.43;15.63;;;-0.20;99.90;;;;;;4939768;29;20196;-87
2023/11/27 12:26:23;;;;;;;29.17;15.47;;;-0.20;99.90;;;;;;4956668;29;20224;-87
2023/11/27 12:28:53;;;;;;;29.43;15.00;;;0.00;99.90;;;;;;4939264;29;20191;-86
2023/11/27 12:31:22;;;;;;;28.60;16.10;;;0.00;99.90;;;;;;4939278;29;20604;-88
2023/11/27 12:33:52;;;;;;;30.30;15.80;;;-0.30;99.90;;;;;;4956542;29;20283;-87
2023/11/27 12:36:23;;;;;;;30.27;15.97;;;-0.50;99.90;;;;;;4939768;29;20190;-88
2023/11/27 12:38:53;;;;;;;32.17;16.83;;;-0.40;99.90;;;;;;4956534;29;20232;-89
2023/11/27 12:41:29;;;;;;;30.57;16.30;;;-0.30;99.90;;;;;;4939787;29;20276;-87